sensor_id;sensor_type;location;lat;lon;timestamp;pressure;altitude;pressure_sealevel;temperature;humidity
62592;BME280;48659;41.622;2.276;2023-04-01T00:00:09;99915.98;;;14.30;52.35
62592;BME280;48659;41.622;2.276;2023-04-01T00:02:36;99917.66;;;13.41;53.31
62592;BME280;48659;41.622;2.276;2023-04-01T00:05:04;99923.82;;;12.72;55.10
62592;BME280;48659;41.622;2.276;2023-04-01T00:07:32;99914.26;;;13.79;52.63
62592;BME280;48659;41.622;2.276;2023-04-01T00:09:59;99913.40;;;14.08;51.95
62592;BME280;48659;41.622;2.276;2023-04-01T00:12:26;99908.35;;;13.12;52.85
62592;BME280;48659;41.622;2.276;2023-04-01T00:14:53;99912.49;;;11.38;57.62
62592;BME280;48659;41.622;2.276;2023-04-01T00:17:20;99913.89;;;12.31;57.25
62592;BME280;48659;41.622;2.276;2023-04-01T00:19:49;99917.87;;;11.43;59.74
62592;BME280;48659;41.622;2.276;2023-04-01T00:22:16;99912.46;;;11.92;58.49
62592;BME280;48659;41.622;2.276;2023-04-01T00:24:44;99907.51;;;12.69;56.34
62592;BME280;48659;41.622;2.276;2023-04-01T00:27:11;99927.13;;;10.79;61.76
62592;BME280;48659;41.622;2.276;2023-04-01T00:29:42;99908.38;;;12.32;58.63
62592;BME280;48659;41.622;2.276;2023-04-01T00:32:09;99904.76;;;12.61;57.25
62592;BME280;48659;41.622;2.276;2023-04-01T00:34:37;99907.40;;;11.65;59.88
62592;BME280;48659;41.622;2.276;2023-04-01T00:37:04;99906.37;;;12.45;57.67
62592;BME280;48659;41.622;2.276;2023-04-01T00:39:32;99900.21;;;13.05;55.46
62592;BME280;48659;41.622;2.276;2023-04-01T00:42:05;99903.05;;;11.89;60.14
62592;BME280;48659;41.622;2.276;2023-04-01T00:44:33;99891.83;;;12.01;60.15
62592;BME280;48659;41.622;2.276;2023-04-01T00:47:01;99893.93;;;11.59;59.43
62592;BME280;48659;41.622;2.276;2023-04-01T00:49:30;99902.07;;;10.76;62.20
62592;BME280;48659;41.622;2.276;2023-04-01T00:52:02;99895.83;;;11.58;60.23
62592;BME280;48659;41.622;2.276;2023-04-01T00:54:31;99893.52;;;13.14;56.43
62592;BME280;48659;41.622;2.276;2023-04-01T00:57:01;99899.00;;;12.83;57.13
62592;BME280;48659;41.622;2.276;2023-04-01T00:59:34;99889.04;;;13.45;54.30
62592;BME280;48659;41.622;2.276;2023-04-01T01:02:04;99888.41;;;12.92;54.62
62592;BME280;48659;41.622;2.276;2023-04-01T01:04:34;99899.53;;;11.60;59.26
62592;BME280;48659;41.622;2.276;2023-04-01T01:07:12;99891.67;;;12.37;57.72
62592;BME280;48659;41.622;2.276;2023-04-01T01:09:46;99888.40;;;13.57;55.01
62592;BME280;48659;41.622;2.276;2023-04-01T01:15:47;99897.95;;;12.16;58.00
62592;BME280;48659;41.622;2.276;2023-04-01T01:18:22;99893.82;;;13.65;54.78
62592;BME280;48659;41.622;2.276;2023-04-01T01:21:05;99901.25;;;11.07;61.03
62592;BME280;48659;41.622;2.276;2023-04-01T01:23:54;99891.01;;;12.62;57.93
62592;BME280;48659;41.622;2.276;2023-04-01T01:26:39;99890.93;;;12.36;59.87
62592;BME280;48659;41.622;2.276;2023-04-01T01:29:25;99884.63;;;13.07;57.41
62592;BME280;48659;41.622;2.276;2023-04-01T01:32:00;99884.89;;;13.45;55.35
62592;BME280;48659;41.622;2.276;2023-04-01T01:34:33;99890.82;;;12.23;58.54
62592;BME280;48659;41.622;2.276;2023-04-01T01:37:04;99879.49;;;12.83;57.32
62592;BME280;48659;41.622;2.276;2023-04-01T01:39:34;99881.32;;;13.71;55.98
62592;BME280;48659;41.622;2.276;2023-04-01T01:42:04;99887.17;;;14.44;53.28
62592;BME280;48659;41.622;2.276;2023-04-01T01:44:34;99885.73;;;15.00;52.46
62592;BME280;48659;41.622;2.276;2023-04-01T01:47:03;99877.53;;;14.60;52.12
62592;BME280;48659;41.622;2.276;2023-04-01T01:49:32;99878.21;;;14.97;51.70
62592;BME280;48659;41.622;2.276;2023-04-01T01:52:01;99881.82;;;15.23;50.84
62592;BME280;48659;41.622;2.276;2023-04-01T01:54:28;99883.14;;;15.01;51.81
62592;BME280;48659;41.622;2.276;2023-04-01T01:56:59;99882.77;;;15.20;51.00
62592;BME280;48659;41.622;2.276;2023-04-01T01:59:29;99874.59;;;15.59;49.70
62592;BME280;48659;41.622;2.276;2023-04-01T02:01:58;99872.65;;;15.88;49.50
62592;BME280;48659;41.622;2.276;2023-04-01T02:04:25;99869.58;;;15.48;50.21
62592;BME280;48659;41.622;2.276;2023-04-01T02:06:56;99865.98;;;15.11;50.41
62592;BME280;48659;41.622;2.276;2023-04-01T02:09:27;99869.99;;;14.40;53.02
62592;BME280;48659;41.622;2.276;2023-04-01T02:11:57;99867.16;;;15.15;50.98
62592;BME280;48659;41.622;2.276;2023-04-01T02:14:29;99857.90;;;15.63;49.97
62592;BME280;48659;41.622;2.276;2023-04-01T02:17:03;99861.89;;;15.38;49.55
62592;BME280;48659;41.622;2.276;2023-04-01T02:19:36;99859.17;;;15.86;48.51
62592;BME280;48659;41.622;2.276;2023-04-01T02:22:08;99856.52;;;15.41;49.59
62592;BME280;48659;41.622;2.276;2023-04-01T02:24:36;99862.56;;;15.67;49.15
62592;BME280;48659;41.622;2.276;2023-04-01T02:27:05;99851.70;;;15.70;49.27
62592;BME280;48659;41.622;2.276;2023-04-01T02:29:32;99849.69;;;14.88;50.85
62592;BME280;48659;41.622;2.276;2023-04-01T02:32:00;99856.81;;;15.96;48.79
62592;BME280;48659;41.622;2.276;2023-04-01T02:34:29;99861.18;;;15.40;49.76
62592;BME280;48659;41.622;2.276;2023-04-01T02:36:57;99861.03;;;15.83;49.37
62592;BME280;48659;41.622;2.276;2023-04-01T02:39:25;99866.39;;;15.66;50.24
62592;BME280;48659;41.622;2.276;2023-04-01T02:41:52;99867.59;;;15.60;49.50
62592;BME280;48659;41.622;2.276;2023-04-01T02:44:20;99865.42;;;16.17;49.01
62592;BME280;48659;41.622;2.276;2023-04-01T02:46:48;99863.03;;;15.77;49.55
62592;BME280;48659;41.622;2.276;2023-04-01T02:49:15;99861.00;;;15.54;50.14
62592;BME280;48659;41.622;2.276;2023-04-01T02:51:43;99862.27;;;15.59;49.94
62592;BME280;48659;41.622;2.276;2023-04-01T02:54:10;99866.06;;;16.02;49.12
62592;BME280;48659;41.622;2.276;2023-04-01T02:56:38;99866.54;;;16.52;48.35
62592;BME280;48659;41.622;2.276;2023-04-01T02:59:05;99866.26;;;16.22;48.36
62592;BME280;48659;41.622;2.276;2023-04-01T03:01:33;99862.69;;;16.01;48.87
62592;BME280;48659;41.622;2.276;2023-04-01T03:04:00;99863.16;;;15.54;50.71
62592;BME280;48659;41.622;2.276;2023-04-01T03:06:27;99867.96;;;14.14;54.37
62592;BME280;48659;41.622;2.276;2023-04-01T03:08:55;99869.59;;;12.87;57.21
62592;BME280;48659;41.622;2.276;2023-04-01T03:11:22;99873.11;;;13.51;57.77
62592;BME280;48659;41.622;2.276;2023-04-01T03:13:49;99875.41;;;11.25;64.44
62592;BME280;48659;41.622;2.276;2023-04-01T03:16:16;99868.28;;;12.74;61.47
62592;BME280;48659;41.622;2.276;2023-04-01T03:18:43;99856.58;;;13.34;59.23
62592;BME280;48659;41.622;2.276;2023-04-01T03:21:19;99866.50;;;13.95;57.07
62592;BME280;48659;41.622;2.276;2023-04-01T03:23:47;99866.40;;;13.24;57.84
62592;BME280;48659;41.622;2.276;2023-04-01T03:26:14;99859.68;;;11.97;60.23
62592;BME280;48659;41.622;2.276;2023-04-01T03:28:42;99857.75;;;14.33;55.53
62592;BME280;48659;41.622;2.276;2023-04-01T03:31:10;99857.88;;;13.86;56.29
62592;BME280;48659;41.622;2.276;2023-04-01T03:33:38;99848.29;;;15.43;52.59
62592;BME280;48659;41.622;2.276;2023-04-01T03:36:05;99855.38;;;15.02;53.45
62592;BME280;48659;41.622;2.276;2023-04-01T03:38:32;99861.57;;;15.45;51.64
62592;BME280;48659;41.622;2.276;2023-04-01T03:41:01;99870.24;;;14.37;53.93
62592;BME280;48659;41.622;2.276;2023-04-01T03:43:29;99859.33;;;15.20;51.47
62592;BME280;48659;41.622;2.276;2023-04-01T03:45:56;99857.02;;;15.23;52.10
62592;BME280;48659;41.622;2.276;2023-04-01T03:48:24;99855.19;;;15.15;52.52
62592;BME280;48659;41.622;2.276;2023-04-01T03:50:52;99847.10;;;15.63;51.14
62592;BME280;48659;41.622;2.276;2023-04-01T03:53:19;99841.82;;;14.92;52.57
62592;BME280;48659;41.622;2.276;2023-04-01T03:55:47;99841.29;;;13.81;54.38
62592;BME280;48659;41.622;2.276;2023-04-01T03:58:15;99839.46;;;15.31;51.60
62592;BME280;48659;41.622;2.276;2023-04-01T04:00:42;99845.35;;;15.94;50.21
62592;BME280;48659;41.622;2.276;2023-04-01T04:03:10;99850.91;;;15.99;49.98
62592;BME280;48659;41.622;2.276;2023-04-01T04:05:37;99848.18;;;15.07;52.05
62592;BME280;48659;41.622;2.276;2023-04-01T04:08:04;99844.20;;;16.31;49.63
62592;BME280;48659;41.622;2.276;2023-04-01T04:10:32;99840.21;;;16.42;49.24
62592;BME280;48659;41.622;2.276;2023-04-01T04:12:59;99842.64;;;15.70;49.44
62592;BME280;48659;41.622;2.276;2023-04-01T04:15:27;99847.19;;;16.36;49.32
62592;BME280;48659;41.622;2.276;2023-04-01T04:17:54;99842.83;;;16.12;49.19
62592;BME280;48659;41.622;2.276;2023-04-01T04:20:22;99836.60;;;16.63;48.98
62592;BME280;48659;41.622;2.276;2023-04-01T04:22:49;99840.26;;;16.04;49.38
62592;BME280;48659;41.622;2.276;2023-04-01T04:25:16;99844.72;;;16.20;49.23
62592;BME280;48659;41.622;2.276;2023-04-01T04:27:43;99837.39;;;16.01;49.90
62592;BME280;48659;41.622;2.276;2023-04-01T04:30:12;99838.44;;;16.57;48.37
62592;BME280;48659;41.622;2.276;2023-04-01T04:32:39;99842.78;;;15.13;52.42
62592;BME280;48659;41.622;2.276;2023-04-01T04:35:07;99833.09;;;14.84;51.66
62592;BME280;48659;41.622;2.276;2023-04-01T04:37:34;99827.07;;;16.16;49.65
62592;BME280;48659;41.622;2.276;2023-04-01T04:40:01;99824.76;;;16.12;49.76
62592;BME280;48659;41.622;2.276;2023-04-01T04:42:28;99824.66;;;14.62;53.45
62592;BME280;48659;41.622;2.276;2023-04-01T04:44:55;99824.34;;;14.82;52.14
62592;BME280;48659;41.622;2.276;2023-04-01T04:47:23;99821.70;;;16.41;50.29
62592;BME280;48659;41.622;2.276;2023-04-01T04:49:53;99816.67;;;15.28;51.47
62592;BME280;48659;41.622;2.276;2023-04-01T04:52:20;99818.22;;;15.49;50.64
62592;BME280;48659;41.622;2.276;2023-04-01T04:54:48;99828.06;;;16.51;49.14
62592;BME280;48659;41.622;2.276;2023-04-01T04:57:15;99825.87;;;16.11;49.82
62592;BME280;48659;41.622;2.276;2023-04-01T04:59:43;99816.11;;;16.67;48.53
62592;BME280;48659;41.622;2.276;2023-04-01T05:02:11;99821.06;;;16.53;48.43
62592;BME280;48659;41.622;2.276;2023-04-01T05:04:39;99826.21;;;16.41;48.91
62592;BME280;48659;41.622;2.276;2023-04-01T05:07:05;99830.49;;;15.35;50.17
62592;BME280;48659;41.622;2.276;2023-04-01T05:09:33;99844.57;;;14.48;53.11
62592;BME280;48659;41.622;2.276;2023-04-01T05:12:00;99843.01;;;16.09;49.40
62592;BME280;48659;41.622;2.276;2023-04-01T05:14:27;99844.35;;;16.59;48.15
62592;BME280;48659;41.622;2.276;2023-04-01T05:16:55;99843.57;;;15.93;49.32
62592;BME280;48659;41.622;2.276;2023-04-01T05:19:23;99848.23;;;15.86;49.59
62592;BME280;48659;41.622;2.276;2023-04-01T05:21:51;99853.14;;;16.25;48.76
62592;BME280;48659;41.622;2.276;2023-04-01T05:24:19;99855.28;;;16.29;48.73
62592;BME280;48659;41.622;2.276;2023-04-01T05:26:46;99853.05;;;16.42;48.45
62592;BME280;48659;41.622;2.276;2023-04-01T05:29:13;99834.74;;;16.43;48.96
62592;BME280;48659;41.622;2.276;2023-04-01T05:31:41;99806.84;;;16.45;48.60
62592;BME280;48659;41.622;2.276;2023-04-01T05:34:08;99791.94;;;16.32;48.51
62592;BME280;48659;41.622;2.276;2023-04-01T05:36:36;99804.60;;;16.37;48.40
62592;BME280;48659;41.622;2.276;2023-04-01T05:39:04;99829.30;;;15.67;50.05
62592;BME280;48659;41.622;2.276;2023-04-01T05:41:34;99826.19;;;15.60;50.82
62592;BME280;48659;41.622;2.276;2023-04-01T05:44:02;99834.93;;;16.13;49.52
62592;BME280;48659;41.622;2.276;2023-04-01T05:46:31;99844.39;;;14.68;52.39
62592;BME280;48659;41.622;2.276;2023-04-01T05:48:59;99843.75;;;15.50;51.57
62592;BME280;48659;41.622;2.276;2023-04-01T05:51:26;99846.58;;;15.61;50.24
62592;BME280;48659;41.622;2.276;2023-04-01T05:53:53;99851.97;;;16.35;49.31
62592;BME280;48659;41.622;2.276;2023-04-01T05:56:21;99849.09;;;16.31;49.75
62592;BME280;48659;41.622;2.276;2023-04-01T05:58:52;99845.71;;;16.13;49.23
62592;BME280;48659;41.622;2.276;2023-04-01T06:01:20;99850.27;;;16.20;49.54
62592;BME280;48659;41.622;2.276;2023-04-01T06:03:47;99855.28;;;15.82;50.10
62592;BME280;48659;41.622;2.276;2023-04-01T06:06:16;99864.19;;;15.75;50.24
62592;BME280;48659;41.622;2.276;2023-04-01T06:08:57;99872.39;;;12.56;57.69
62592;BME280;48659;41.622;2.276;2023-04-01T06:11:31;99872.56;;;13.75;57.18
62592;BME280;48659;41.622;2.276;2023-04-01T06:14:12;99865.86;;;13.01;58.20
62592;BME280;48659;41.622;2.276;2023-04-01T06:16:56;99863.05;;;12.84;58.63
62592;BME280;48659;41.622;2.276;2023-04-01T06:19:36;99867.44;;;14.55;54.18
62592;BME280;48659;41.622;2.276;2023-04-01T06:22:35;99870.95;;;14.09;55.09
62592;BME280;48659;41.622;2.276;2023-04-01T06:25:21;99869.82;;;12.19;61.17
62592;BME280;48659;41.622;2.276;2023-04-01T06:28:04;99859.43;;;11.24;64.78
62592;BME280;48659;41.622;2.276;2023-04-01T06:30:39;99852.54;;;10.60;62.53
62592;BME280;48659;41.622;2.276;2023-04-01T06:33:27;99845.80;;;10.82;58.83
62592;BME280;48659;41.622;2.276;2023-04-01T06:36:24;99846.43;;;11.99;55.98
62592;BME280;48659;41.622;2.276;2023-04-01T06:39:09;99850.72;;;12.32;50.00
62592;BME280;48659;41.622;2.276;2023-04-01T06:42:10;99855.12;;;12.59;45.54
62592;BME280;48659;41.622;2.276;2023-04-01T06:44:46;99858.05;;;11.43;47.54
62592;BME280;48659;41.622;2.276;2023-04-01T06:47:29;99864.51;;;11.72;46.25
62592;BME280;48659;41.622;2.276;2023-04-01T06:50:07;99859.80;;;12.46;44.21
62592;BME280;48659;41.622;2.276;2023-04-01T06:53:00;99866.44;;;13.10;43.48
62592;BME280;48659;41.622;2.276;2023-04-01T06:55:35;99875.78;;;12.07;44.90
62592;BME280;48659;41.622;2.276;2023-04-01T06:58:06;99872.30;;;12.48;43.78
62592;BME280;48659;41.622;2.276;2023-04-01T07:00:41;99869.50;;;12.57;43.70
62592;BME280;48659;41.622;2.276;2023-04-01T07:03:18;99865.30;;;13.53;42.05
62592;BME280;48659;41.622;2.276;2023-04-01T07:05:56;99862.84;;;14.84;39.85
62592;BME280;48659;41.622;2.276;2023-04-01T07:08:29;99856.84;;;15.41;38.35
62592;BME280;48659;41.622;2.276;2023-04-01T07:11:00;99857.92;;;14.96;38.05
62592;BME280;48659;41.622;2.276;2023-04-01T07:13:31;99853.40;;;13.92;40.12
62592;BME280;48659;41.622;2.276;2023-04-01T07:16:10;99844.82;;;14.88;38.77
62592;BME280;48659;41.622;2.276;2023-04-01T07:18:43;99850.15;;;12.36;42.05
62592;BME280;48659;41.622;2.276;2023-04-01T07:21:23;99846.02;;;12.65;42.50
62592;BME280;48659;41.622;2.276;2023-04-01T07:23:56;99855.67;;;11.73;44.88
62592;BME280;48659;41.622;2.276;2023-04-01T07:26:25;99854.03;;;14.04;40.48
62592;BME280;48659;41.622;2.276;2023-04-01T07:28:54;99849.78;;;12.82;41.84
62592;BME280;48659;41.622;2.276;2023-04-01T07:31:32;99855.60;;;12.54;42.53
62592;BME280;48659;41.622;2.276;2023-04-01T07:34:09;99854.96;;;13.38;42.22
62592;BME280;48659;41.622;2.276;2023-04-01T07:36:45;99866.87;;;12.27;43.87
62592;BME280;48659;41.622;2.276;2023-04-01T07:39:26;99865.86;;;11.78;44.97
62592;BME280;48659;41.622;2.276;2023-04-01T07:42:01;99857.53;;;11.80;45.26
62592;BME280;48659;41.622;2.276;2023-04-01T07:44:39;99854.74;;;12.95;43.51
62592;BME280;48659;41.622;2.276;2023-04-01T07:47:27;99858.24;;;11.60;46.75
62592;BME280;48659;41.622;2.276;2023-04-01T07:50:09;99858.65;;;10.95;48.78
62592;BME280;48659;41.622;2.276;2023-04-01T07:52:44;99864.24;;;11.28;47.71
62592;BME280;48659;41.622;2.276;2023-04-01T07:55:20;99864.48;;;12.66;44.58
62592;BME280;48659;41.622;2.276;2023-04-01T07:57:57;99872.08;;;10.86;48.54
62592;BME280;48659;41.622;2.276;2023-04-01T08:00:35;99869.46;;;10.80;47.00
62592;BME280;48659;41.622;2.276;2023-04-01T08:03:19;99862.78;;;11.31;46.05
62592;BME280;48659;41.622;2.276;2023-04-01T08:05:55;99865.67;;;10.81;46.95
62592;BME280;48659;41.622;2.276;2023-04-01T08:08:33;99859.28;;;11.20;45.72
62592;BME280;48659;41.622;2.276;2023-04-01T08:11:12;99862.43;;;11.86;43.66
62592;BME280;48659;41.622;2.276;2023-04-01T08:13:48;99870.32;;;11.95;43.25
62592;BME280;48659;41.622;2.276;2023-04-01T08:16:26;99873.71;;;11.79;44.32
62592;BME280;48659;41.622;2.276;2023-04-01T08:19:04;99872.15;;;10.47;47.28
62592;BME280;48659;41.622;2.276;2023-04-01T08:21:41;99864.44;;;12.12;44.90
62592;BME280;48659;41.622;2.276;2023-04-01T08:24:17;99882.22;;;10.48;47.55
62592;BME280;48659;41.622;2.276;2023-04-01T08:26:51;99871.71;;;10.48;48.67
62592;BME280;48659;41.622;2.276;2023-04-01T08:29:22;99872.20;;;10.42;48.21
62592;BME280;48659;41.622;2.276;2023-04-01T08:31:56;99872.49;;;10.77;48.09
62592;BME280;48659;41.622;2.276;2023-04-01T08:34:30;99870.64;;;10.18;49.15
62592;BME280;48659;41.622;2.276;2023-04-01T08:37:05;99870.04;;;9.99;49.15
62592;BME280;48659;41.622;2.276;2023-04-01T08:39:35;99870.62;;;10.64;48.21
62592;BME280;48659;41.622;2.276;2023-04-01T08:42:16;99870.75;;;10.91;47.98
62592;BME280;48659;41.622;2.276;2023-04-01T08:45:18;99865.28;;;10.92;47.52
62592;BME280;48659;41.622;2.276;2023-04-01T08:48:18;99859.87;;;11.82;44.87
62592;BME280;48659;41.622;2.276;2023-04-01T08:50:58;99865.56;;;12.90;42.44
62592;BME280;48659;41.622;2.276;2023-04-01T08:53:38;99865.38;;;12.64;43.85
62592;BME280;48659;41.622;2.276;2023-04-01T08:56:17;99872.70;;;10.95;46.52
62592;BME280;48659;41.622;2.276;2023-04-01T08:58:59;99871.21;;;11.05;46.94
62592;BME280;48659;41.622;2.276;2023-04-01T09:01:46;99869.09;;;11.56;45.89
62592;BME280;48659;41.622;2.276;2023-04-01T09:04:26;99877.79;;;11.10;47.13
62592;BME280;48659;41.622;2.276;2023-04-01T09:07:07;99871.95;;;12.76;43.14
62592;BME280;48659;41.622;2.276;2023-04-01T09:09:54;99870.55;;;11.25;45.61
62592;BME280;48659;41.622;2.276;2023-04-01T09:12:43;99885.03;;;10.88;47.19
62592;BME280;48659;41.622;2.276;2023-04-01T09:15:32;99872.77;;;11.19;47.22
62592;BME280;48659;41.622;2.276;2023-04-01T09:18:15;99861.51;;;11.95;45.28
62592;BME280;48659;41.622;2.276;2023-04-01T09:21:10;99859.56;;;11.87;44.73
62592;BME280;48659;41.622;2.276;2023-04-01T09:23:54;99859.43;;;11.84;45.35
62592;BME280;48659;41.622;2.276;2023-04-01T09:26:39;99863.98;;;11.43;46.17
62592;BME280;48659;41.622;2.276;2023-04-01T09:29:23;99858.46;;;12.48;44.53
62592;BME280;48659;41.622;2.276;2023-04-01T09:32:17;99860.63;;;13.99;40.63
62592;BME280;48659;41.622;2.276;2023-04-01T09:34:54;99861.89;;;14.75;39.13
62592;BME280;48659;41.622;2.276;2023-04-01T09:37:31;99861.49;;;12.44;42.83
62592;BME280;48659;41.622;2.276;2023-04-01T09:40:14;99858.26;;;13.01;41.79
62592;BME280;48659;41.622;2.276;2023-04-01T09:42:44;99859.43;;;13.02;41.74
62592;BME280;48659;41.622;2.276;2023-04-01T09:45:26;99850.59;;;15.75;38.06
62592;BME280;48659;41.622;2.276;2023-04-01T09:48:15;99845.68;;;16.66;35.52
62592;BME280;48659;41.622;2.276;2023-04-01T09:50:53;99848.45;;;17.13;34.62
62592;BME280;48659;41.622;2.276;2023-04-01T09:53:38;99837.91;;;17.22;34.14
62592;BME280;48659;41.622;2.276;2023-04-01T09:56:42;99830.65;;;17.47;33.92
62592;BME280;48659;41.622;2.276;2023-04-01T10:00:03;99828.57;;;17.84;33.27
62592;BME280;48659;41.622;2.276;2023-04-01T10:06:20;99820.49;;;19.02;32.04
62592;BME280;48659;41.622;2.276;2023-04-01T10:09:30;99815.65;;;18.28;32.17
62592;BME280;48659;41.622;2.276;2023-04-01T10:12:34;99815.94;;;16.44;34.47
62592;BME280;48659;41.622;2.276;2023-04-01T10:17:35;99825.15;;;18.25;32.92
62592;BME280;48659;41.622;2.276;2023-04-01T10:20:40;99825.62;;;18.30;32.36
62592;BME280;48659;41.622;2.276;2023-04-01T10:23:24;99827.75;;;17.79;32.57
62592;BME280;48659;41.622;2.276;2023-04-01T10:26:10;99820.69;;;18.91;31.40
62592;BME280;48659;41.622;2.276;2023-04-01T10:29:11;99823.21;;;17.50;33.47
62592;BME280;48659;41.622;2.276;2023-04-01T10:34:46;99816.23;;;18.87;31.62
62592;BME280;48659;41.622;2.276;2023-04-01T10:37:41;99819.59;;;18.00;32.06
62592;BME280;48659;41.622;2.276;2023-04-01T10:41:23;99813.52;;;18.13;32.51
62592;BME280;48659;41.622;2.276;2023-04-01T10:44:11;99800.59;;;16.48;34.66
62592;BME280;48659;41.622;2.276;2023-04-01T10:47:07;99796.01;;;16.54;34.31
62592;BME280;48659;41.622;2.276;2023-04-01T10:49:46;99783.30;;;19.08;31.83
62592;BME280;48659;41.622;2.276;2023-04-01T10:55:08;99766.78;;;19.59;31.28
62592;BME280;48659;41.622;2.276;2023-04-01T10:58:01;99762.47;;;19.32;30.70
62592;BME280;48659;41.622;2.276;2023-04-01T11:00:55;99764.96;;;17.62;33.13
62592;BME280;48659;41.622;2.276;2023-04-01T11:08:19;99755.11;;;17.71;34.01
62592;BME280;48659;41.622;2.276;2023-04-01T11:11:28;99741.48;;;18.25;32.34
62592;BME280;48659;41.622;2.276;2023-04-01T11:16:43;99733.12;;;17.85;34.19
62592;BME280;48659;41.622;2.276;2023-04-01T11:20:36;99728.52;;;17.57;33.15
62592;BME280;48659;41.622;2.276;2023-04-01T11:23:22;99717.40;;;19.04;31.85
62592;BME280;48659;41.622;2.276;2023-04-01T11:26:04;99717.53;;;17.20;33.26
62592;BME280;48659;41.622;2.276;2023-04-01T11:28:57;99708.57;;;19.27;31.60
62592;BME280;48659;41.622;2.276;2023-04-01T11:31:37;99704.70;;;19.74;30.82
62592;BME280;48659;41.622;2.276;2023-04-01T11:34:16;99697.96;;;19.31;30.76
62592;BME280;48659;41.622;2.276;2023-04-01T11:36:55;99697.37;;;19.73;30.77
62592;BME280;48659;41.622;2.276;2023-04-01T11:39:33;99693.94;;;19.95;29.89
62592;BME280;48659;41.622;2.276;2023-04-01T11:42:14;99697.36;;;18.26;31.66
62592;BME280;48659;41.622;2.276;2023-04-01T11:44:51;99702.36;;;18.82;32.02
62592;BME280;48659;41.622;2.276;2023-04-01T11:47:39;99707.71;;;17.62;32.79
62592;BME280;48659;41.622;2.276;2023-04-01T11:50:20;99699.51;;;19.40;31.78
62592;BME280;48659;41.622;2.276;2023-04-01T11:53:05;99690.77;;;20.15;29.42
62592;BME280;48659;41.622;2.276;2023-04-01T11:55:47;99687.89;;;20.82;28.23
62592;BME280;48659;41.622;2.276;2023-04-01T11:58:38;99684.74;;;19.04;29.20
62592;BME280;48659;41.622;2.276;2023-04-01T12:01:29;99673.90;;;20.10;28.20
62592;BME280;48659;41.622;2.276;2023-04-01T12:05:25;99660.38;;;20.80;28.33
62592;BME280;48659;41.622;2.276;2023-04-01T12:08:08;99651.13;;;20.98;27.67
62592;BME280;48659;41.622;2.276;2023-04-01T12:10:42;99644.57;;;19.53;28.70
62592;BME280;48659;41.622;2.276;2023-04-01T12:13:24;99638.48;;;18.77;29.45
62592;BME280;48659;41.622;2.276;2023-04-01T12:16:06;99630.28;;;18.99;29.48
62592;BME280;48659;41.622;2.276;2023-04-01T12:18:40;99625.28;;;20.05;28.71
62592;BME280;48659;41.622;2.276;2023-04-01T12:21:20;99616.81;;;18.43;30.35
62592;BME280;48659;41.622;2.276;2023-04-01T12:24:17;99615.33;;;19.19;29.47
62592;BME280;48659;41.622;2.276;2023-04-01T12:27:08;99611.24;;;20.27;28.20
62592;BME280;48659;41.622;2.276;2023-04-01T12:29:53;99605.61;;;18.60;28.68
62592;BME280;48659;41.622;2.276;2023-04-01T12:32:30;99608.81;;;19.78;27.91
62592;BME280;48659;41.622;2.276;2023-04-01T12:35:16;99605.30;;;20.84;25.97
62592;BME280;48659;41.622;2.276;2023-04-01T12:38:05;99601.78;;;21.65;23.99
62592;BME280;48659;41.622;2.276;2023-04-01T12:40:56;99605.20;;;20.92;23.58
62592;BME280;48659;41.622;2.276;2023-04-01T12:43:52;99592.71;;;20.53;24.21
62592;BME280;48659;41.622;2.276;2023-04-01T12:46:27;99586.69;;;20.22;24.04
62592;BME280;48659;41.622;2.276;2023-04-01T12:49:13;99578.01;;;19.42;24.65
62592;BME280;48659;41.622;2.276;2023-04-01T12:52:04;99576.76;;;19.71;25.16
62592;BME280;48659;41.622;2.276;2023-04-01T12:55:35;99575.86;;;20.32;26.15
62592;BME280;48659;41.622;2.276;2023-04-01T13:02:13;99563.89;;;20.91;22.69
62592;BME280;48659;41.622;2.276;2023-04-01T13:05:17;99552.23;;;21.49;23.84
62592;BME280;48659;41.622;2.276;2023-04-01T13:08:00;99541.73;;;18.67;26.47
62592;BME280;48659;41.622;2.276;2023-04-01T13:10:48;99539.01;;;20.59;25.21
62592;BME280;48659;41.622;2.276;2023-04-01T13:13:36;99532.87;;;19.67;26.75
62592;BME280;48659;41.622;2.276;2023-04-01T13:16:12;99527.37;;;20.03;26.53
62592;BME280;48659;41.622;2.276;2023-04-01T13:18:54;99537.15;;;18.46;28.47
62592;BME280;48659;41.622;2.276;2023-04-01T13:21:34;99536.16;;;18.90;28.11
62592;BME280;48659;41.622;2.276;2023-04-01T13:24:13;99524.35;;;18.97;27.11
62592;BME280;48659;41.622;2.276;2023-04-01T13:26:53;99526.59;;;20.50;25.53
62592;BME280;48659;41.622;2.276;2023-04-01T13:29:28;99526.54;;;20.15;25.28
62592;BME280;48659;41.622;2.276;2023-04-01T13:32:12;99529.10;;;20.59;25.00
62592;BME280;48659;41.622;2.276;2023-04-01T13:34:55;99520.47;;;20.92;24.80
62592;BME280;48659;41.622;2.276;2023-04-01T13:37:32;99512.59;;;19.15;27.07
62592;BME280;48659;41.622;2.276;2023-04-01T13:40:26;99509.97;;;18.43;28.15
62592;BME280;48659;41.622;2.276;2023-04-01T13:43:01;99504.04;;;18.26;27.77
62592;BME280;48659;41.622;2.276;2023-04-01T13:45:35;99498.98;;;19.91;26.31
62592;BME280;48659;41.622;2.276;2023-04-01T13:48:27;99502.91;;;18.19;28.54
62592;BME280;48659;41.622;2.276;2023-04-01T13:51:19;99496.57;;;19.84;27.15
62592;BME280;48659;41.622;2.276;2023-04-01T13:54:17;99493.98;;;19.71;26.58
62592;BME280;48659;41.622;2.276;2023-04-01T13:56:55;99485.52;;;19.93;25.95
62592;BME280;48659;41.622;2.276;2023-04-01T14:00:37;99477.82;;;19.15;26.93
62592;BME280;48659;41.622;2.276;2023-04-01T14:04:24;99469.72;;;19.47;26.31
62592;BME280;48659;41.622;2.276;2023-04-01T14:07:06;99462.47;;;18.51;27.84
62592;BME280;48659;41.622;2.276;2023-04-01T14:09:47;99456.17;;;18.56;27.97
62592;BME280;48659;41.622;2.276;2023-04-01T14:12:28;99461.86;;;18.25;28.76
62592;BME280;48659;41.622;2.276;2023-04-01T14:15:14;99454.51;;;18.19;29.12
62592;BME280;48659;41.622;2.276;2023-04-01T14:18:14;99453.02;;;17.46;29.43
62592;BME280;48659;41.622;2.276;2023-04-01T14:20:59;99447.44;;;17.33;30.02